sensor_id;sensor_type;location;lat;lon;timestamp;pressure;altitude;pressure_sealevel;temperature;humidity
26043;BME280;13818;52.156;5.382;2023-05-27T00:00:51;102755.91;;;9.66;100.00
26043;BME280;13818;52.156;5.382;2023-05-27T00:03:17;102752.38;;;9.64;100.00
26043;BME280;13818;52.156;5.382;2023-05-27T00:05:45;102752.34;;;9.67;100.00
26043;BME280;13818;52.156;5.382;2023-05-27T00:08:11;102751.50;;;9.65;100.00
26043;BME280;13818;52.156;5.382;2023-05-27T00:10:39;102749.75;;;9.60;100.00
26043;BME280;13818;52.156;5.382;2023-05-27T00:13:07;102760.38;;;9.64;100.00
26043;BME280;13818;52.156;5.382;2023-05-27T00:15:34;102766.50;;;9.73;100.00
26043;BME280;13818;52.156;5.382;2023-05-27T00:18:00;102755.22;;;9.50;100.00
26043;BME280;13818;52.156;5.382;2023-05-27T00:20:27;102753.53;;;9.41;100.00
26043;BME280;13818;52.156;5.382;2023-05-27T00:22:55;102746.41;;;9.41;100.00
26043;BME280;13818;52.156;5.382;2023-05-27T00:25:22;102739.34;;;9.39;100.00
26043;BME280;13818;52.156;5.382;2023-05-27T00:27:48;102741.19;;;9.34;100.00
26043;BME280;13818;52.156;5.382;2023-05-27T00:30:16;102754.53;;;9.29;100.00
26043;BME280;13818;52.156;5.382;2023-05-27T00:32:43;102736.81;;;9.26;100.00
26043;BME280;13818;52.156;5.382;2023-05-27T00:35:10;102732.41;;;9.25;100.00
26043;BME280;13818;52.156;5.382;2023-05-27T00:37:37;102730.66;;;9.21;100.00
26043;BME280;13818;52.156;5.382;2023-05-27T00:40:07;102726.25;;;9.19;100.00
26043;BME280;13818;52.156;5.382;2023-05-27T00:42:35;102727.97;;;9.24;100.00
26043;BME280;13818;52.156;5.382;2023-05-27T00:45:02;102732.44;;;9.21;100.00
26043;BME280;13818;52.156;5.382;2023-05-27T00:47:32;102723.72;;;9.05;100.00
26043;BME280;13818;52.156;5.382;2023-05-27T00:50:00;102724.59;;;9.08;100.00
26043;BME280;13818;52.156;5.382;2023-05-27T00:52:26;102722.78;;;9.09;100.00
26043;BME280;13818;52.156;5.382;2023-05-27T00:54:53;102726.44;;;9.02;100.00
26043;BME280;13818;52.156;5.382;2023-05-27T00:57:21;102718.50;;;8.95;100.00
26043;BME280;13818;52.156;5.382;2023-05-27T00:59:48;102711.50;;;8.85;100.00
26043;BME280;13818;52.156;5.382;2023-05-27T01:02:15;102705.34;;;8.82;100.00
26043;BME280;13818;52.156;5.382;2023-05-27T01:04:43;102715.06;;;8.81;100.00
26043;BME280;13818;52.156;5.382;2023-05-27T01:07:15;102711.50;;;8.85;100.00
26043;BME280;13818;52.156;5.382;2023-05-27T01:09:47;102708.78;;;8.90;100.00
26043;BME280;13818;52.156;5.382;2023-05-27T01:12:18;102707.94;;;8.86;100.00
26043;BME280;13818;52.156;5.382;2023-05-27T01:14:49;102708.84;;;8.85;100.00
26043;BME280;13818;52.156;5.382;2023-05-27T01:17:18;102713.28;;;8.85;100.00
26043;BME280;13818;52.156;5.382;2023-05-27T01:19:47;102722.19;;;8.81;100.00
26043;BME280;13818;52.156;5.382;2023-05-27T01:22:19;102711.56;;;8.79;100.00
26043;BME280;13818;52.156;5.382;2023-05-27T01:24:47;102712.47;;;8.75;100.00
26043;BME280;13818;52.156;5.382;2023-05-27T01:27:13;102710.78;;;8.65;100.00
26043;BME280;13818;52.156;5.382;2023-05-27T01:29:40;102708.13;;;8.65;100.00
26043;BME280;13818;52.156;5.382;2023-05-27T01:32:12;102717.84;;;8.70;100.00
26043;BME280;13818;52.156;5.382;2023-05-27T01:34:45;102712.47;;;8.73;100.00
26043;BME280;13818;52.156;5.382;2023-05-27T01:37:14;102719.56;;;8.77;100.00
26043;BME280;13818;52.156;5.382;2023-05-27T01:39:42;102711.53;;;8.81;100.00
26043;BME280;13818;52.156;5.382;2023-05-27T01:42:11;102710.78;;;8.68;100.00
26043;BME280;13818;52.156;5.382;2023-05-27T01:44:38;102706.44;;;8.57;100.00
26043;BME280;13818;52.156;5.382;2023-05-27T01:47:05;102711.78;;;8.53;100.00
26043;BME280;13818;52.156;5.382;2023-05-27T01:49:33;102702.94;;;8.43;100.00
26043;BME280;13818;52.156;5.382;2023-05-27T01:52:01;102702.97;;;8.41;100.00
26043;BME280;13818;52.156;5.382;2023-05-27T01:54:27;102712.69;;;8.47;100.00
26043;BME280;13818;52.156;5.382;2023-05-27T01:56:54;102714.41;;;8.56;100.00
26043;BME280;13818;52.156;5.382;2023-05-27T01:59:22;102719.69;;;8.60;100.00
26043;BME280;13818;52.156;5.382;2023-05-27T02:01:49;102718.81;;;8.58;100.00
26043;BME280;13818;52.156;5.382;2023-05-27T02:04:17;102721.47;;;8.57;100.00
26043;BME280;13818;52.156;5.382;2023-05-27T02:06:43;102718.81;;;8.58;100.00
26043;BME280;13818;52.156;5.382;2023-05-27T02:09:10;102721.50;;;8.55;100.00
26043;BME280;13818;52.156;5.382;2023-05-27T02:11:38;102725.91;;;8.58;100.00
26043;BME280;13818;52.156;5.382;2023-05-27T02:14:04;102726.84;;;8.49;100.00
26043;BME280;13818;52.156;5.382;2023-05-27T02:16:34;102720.66;;;8.45;100.00
26043;BME280;13818;52.156;5.382;2023-05-27T02:19:01;102721.56;;;8.43;100.00
26043;BME280;13818;52.156;5.382;2023-05-27T02:21:29;102716.25;;;8.38;100.00
26043;BME280;13818;52.156;5.382;2023-05-27T02:23:56;102718.16;;;8.22;100.00
26043;BME280;13818;52.156;5.382;2023-05-27T02:26:23;102704.94;;;8.10;100.00
26043;BME280;13818;52.156;5.382;2023-05-27T02:28:50;102709.41;;;8.05;100.00
26043;BME280;13818;52.156;5.382;2023-05-27T02:31:16;102702.31;;;8.08;100.00
26043;BME280;13818;52.156;5.382;2023-05-27T02:33:44;102706.75;;;8.05;100.00
26043;BME280;13818;52.156;5.382;2023-05-27T02:36:11;102702.34;;;7.97;100.00
26043;BME280;13818;52.156;5.382;2023-05-27T02:38:38;102703.25;;;8.00;100.00
26043;BME280;13818;52.156;5.382;2023-05-27T02:41:04;102699.63;;;8.07;100.00
26043;BME280;13818;52.156;5.382;2023-05-27T02:43:32;102702.28;;;8.07;100.00
26043;BME280;13818;52.156;5.382;2023-05-27T02:45:58;102700.50;;;8.09;100.00
26043;BME280;13818;52.156;5.382;2023-05-27T02:48:25;102699.66;;;8.08;100.00
26043;BME280;13818;52.156;5.382;2023-05-27T02:50:53;102696.97;;;8.07;100.00
26043;BME280;13818;52.156;5.382;2023-05-27T02:53:19;102697.91;;;8.03;100.00
26043;BME280;13818;52.156;5.382;2023-05-27T02:55:46;102702.28;;;8.07;100.00
26043;BME280;13818;52.156;5.382;2023-05-27T02:58:13;102704.97;;;8.08;100.00
26043;BME280;13818;52.156;5.382;2023-05-27T03:00:39;102707.66;;;8.01;100.00
26043;BME280;13818;52.156;5.382;2023-05-27T03:03:06;102710.28;;;8.04;100.00
26043;BME280;13818;52.156;5.382;2023-05-27T03:05:33;102716.47;;;8.06;100.00
26043;BME280;13818;52.156;5.382;2023-05-27T03:08:01;102707.63;;;8.04;100.00
26043;BME280;13818;52.156;5.382;2023-05-27T03:10:28;102705.88;;;8.03;100.00
26043;BME280;13818;52.156;5.382;2023-05-27T03:12:54;102708.56;;;8.00;100.00
26043;BME280;13818;52.156;5.382;2023-05-27T03:15:21;102710.34;;;7.93;100.00
26043;BME280;13818;52.156;5.382;2023-05-27T03:17:48;102713.97;;;7.79;100.00
26043;BME280;13818;52.156;5.382;2023-05-27T03:20:14;102713.03;;;7.88;100.00
26043;BME280;13818;52.156;5.382;2023-05-27T03:22:42;102702.41;;;7.87;100.00
26043;BME280;13818;52.156;5.382;2023-05-27T03:25:10;102711.28;;;7.86;100.00
26043;BME280;13818;52.156;5.382;2023-05-27T03:27:36;102716.63;;;7.78;100.00
26043;BME280;13818;52.156;5.382;2023-05-27T03:30:04;102710.41;;;7.79;100.00
26043;BME280;13818;52.156;5.382;2023-05-27T03:32:31;102710.41;;;7.79;100.00
26043;BME280;13818;52.156;5.382;2023-05-27T03:34:57;102710.38;;;7.87;100.00
26043;BME280;13818;52.156;5.382;2023-05-27T03:37:24;102710.34;;;7.91;100.00
26043;BME280;13818;52.156;5.382;2023-05-27T03:39:51;102709.47;;;7.91;100.00
26043;BME280;13818;52.156;5.382;2023-05-27T03:42:19;102707.69;;;7.93;100.00
26043;BME280;13818;52.156;5.382;2023-05-27T03:44:46;102708.56;;;8.00;100.00
26043;BME280;13818;52.156;5.382;2023-05-27T03:47:13;102711.19;;;8.06;100.00
26043;BME280;13818;52.156;5.382;2023-05-27T03:49:42;102702.22;;;8.19;100.00
26043;BME280;13818;52.156;5.382;2023-05-27T03:52:09;102689.78;;;8.24;100.00
26043;BME280;13818;52.156;5.382;2023-05-27T03:54:36;102690.66;;;8.31;100.00
26043;BME280;13818;52.156;5.382;2023-05-27T03:57:03;102684.38;;;8.40;100.00
26043;BME280;13818;52.156;5.382;2023-05-27T03:59:30;102690.47;;;8.59;100.00
26043;BME280;13818;52.156;5.382;2023-05-27T04:01:57;102695.72;;;8.67;100.00
26043;BME280;13818;52.156;5.382;2023-05-27T04:04:23;102690.22;;;8.84;100.00
26043;BME280;13818;52.156;5.382;2023-05-27T04:06:50;102692.75;;;8.99;100.00
26043;BME280;13818;52.156;5.382;2023-05-27T04:09:18;102695.09;;;9.30;100.00
26043;BME280;13818;52.156;5.382;2023-05-27T04:11:45;102687.94;;;9.37;100.00
26043;BME280;13818;52.156;5.382;2023-05-27T04:14:11;102686.88;;;9.50;100.00
26043;BME280;13818;52.156;5.382;2023-05-27T04:16:39;102677.53;;;9.87;100.00
26043;BME280;13818;52.156;5.382;2023-05-27T04:19:06;102683.69;;;9.90;100.00
26043;BME280;13818;52.156;5.382;2023-05-27T04:21:32;102680.75;;;10.09;100.00
26043;BME280;13818;52.156;5.382;2023-05-27T04:24:01;102686.50;;;10.42;100.00
26043;BME280;13818;52.156;5.382;2023-05-27T04:26:27;102677.44;;;10.52;100.00
26043;BME280;13818;52.156;5.382;2023-05-27T04:28:54;102683.44;;;10.65;100.00
26043;BME280;13818;52.156;5.382;2023-05-27T04:31:21;102677.41;;;11.05;100.00
26043;BME280;13818;52.156;5.382;2023-05-27T04:33:48;102681.72;;;10.63;100.00
26043;BME280;13818;52.156;5.382;2023-05-27T04:36:15;102682.97;;;10.95;100.00
26043;BME280;13818;52.156;5.382;2023-05-27T04:38:43;102685.94;;;10.76;100.00
26043;BME280;13818;52.156;5.382;2023-05-27T04:41:11;102683.69;;;11.03;100.00
26043;BME280;13818;52.156;5.382;2023-05-27T04:43:38;102682.91;;;11.43;100.00
26043;BME280;13818;52.156;5.382;2023-05-27T04:46:07;102684.03;;;11.75;100.00
26043;BME280;13818;52.156;5.382;2023-05-27T04:48:33;102675.19;;;11.71;100.00
26043;BME280;13818;52.156;5.382;2023-05-27T04:51:02;102667.75;;;11.45;100.00
26043;BME280;13818;52.156;5.382;2023-05-27T04:53:29;102669.88;;;11.71;100.00
26043;BME280;13818;52.156;5.382;2023-05-27T04:55:57;102669.44;;;11.90;100.00
26043;BME280;13818;52.156;5.382;2023-05-27T04:58:24;102673.16;;;12.24;100.00
26043;BME280;13818;52.156;5.382;2023-05-27T05:00:51;102677.63;;;12.59;100.00
26043;BME280;13818;52.156;5.382;2023-05-27T05:03:21;102672.53;;;12.50;100.00
26043;BME280;13818;52.156;5.382;2023-05-27T05:06:03;102673.56;;;12.79;100.00
26043;BME280;13818;52.156;5.382;2023-05-27T05:08:30;102676.41;;;13.06;100.00
26043;BME280;13818;52.156;5.382;2023-05-27T05:10:57;102670.56;;;13.24;100.00
26043;BME280;13818;52.156;5.382;2023-05-27T05:13:24;102682.44;;;13.47;100.00
26043;BME280;13818;52.156;5.382;2023-05-27T05:15:54;102669.06;;;13.14;100.00
26043;BME280;13818;52.156;5.382;2023-05-27T05:18:20;102672.66;;;14.04;100.00
26043;BME280;13818;52.156;5.382;2023-05-27T05:20:47;102674.69;;;13.67;100.00
26043;BME280;13818;52.156;5.382;2023-05-27T05:23:15;102675.03;;;13.57;100.00
26043;BME280;13818;52.156;5.382;2023-05-27T05:25:41;102669.50;;;13.91;100.00
26043;BME280;13818;52.156;5.382;2023-05-27T05:28:08;102666.97;;;13.87;100.00
26043;BME280;13818;52.156;5.382;2023-05-27T05:30:34;102666.25;;;13.52;100.00
26043;BME280;13818;52.156;5.382;2023-05-27T05:33:01;102665.88;;;14.76;100.00
26043;BME280;13818;52.156;5.382;2023-05-27T05:35:28;102659.22;;;15.37;100.00
26043;BME280;13818;52.156;5.382;2023-05-27T05:37:54;102663.69;;;15.12;100.00
26043;BME280;13818;52.156;5.382;2023-05-27T05:40:22;102661.50;;;15.95;100.00
26043;BME280;13818;52.156;5.382;2023-05-27T05:42:49;102657.88;;;16.40;100.00
26043;BME280;13818;52.156;5.382;2023-05-27T05:45:16;102662.34;;;16.40;100.00
26043;BME280;13818;52.156;5.382;2023-05-27T05:47:42;102659.13;;;16.74;100.00
26043;BME280;13818;52.156;5.382;2023-05-27T05:50:09;102656.19;;;16.16;100.00
26043;BME280;13818;52.156;5.382;2023-05-27T05:52:36;102645.16;;;15.54;100.00
26043;BME280;13818;52.156;5.382;2023-05-27T05:55:03;102645.06;;;15.79;100.00
26043;BME280;13818;52.156;5.382;2023-05-27T05:57:32;102653.09;;;16.47;100.00
26043;BME280;13818;52.156;5.382;2023-05-27T05:59:59;102660.44;;;15.99;100.00
26043;BME280;13818;52.156;5.382;2023-05-27T06:02:25;102657.44;;;15.59;100.00
26043;BME280;13818;52.156;5.382;2023-05-27T06:04:53;102660.81;;;16.12;100.00
26043;BME280;13818;52.156;5.382;2023-05-27T06:07:19;102662.75;;;16.94;100.00
26043;BME280;13818;52.156;5.382;2023-05-27T06:09:47;102656.97;;;17.43;100.00
26043;BME280;13818;52.156;5.382;2023-05-27T06:12:14;102660.19;;;17.51;100.00
26043;BME280;13818;52.156;5.382;2023-05-27T06:14:42;102641.47;;;17.48;100.00
26043;BME280;13818;52.156;5.382;2023-05-27T06:17:09;102644.16;;;17.67;100.00
26043;BME280;13818;52.156;5.382;2023-05-27T06:19:35;102642.44;;;16.87;100.00
26043;BME280;13818;52.156;5.382;2023-05-27T06:22:02;102642.44;;;16.87;100.00
26043;BME280;13818;52.156;5.382;2023-05-27T06:24:30;102632.13;;;16.76;100.00
26043;BME280;13818;52.156;5.382;2023-05-27T06:26:57;102616.91;;;17.73;100.00
26043;BME280;13818;52.156;5.382;2023-05-27T06:29:23;102626.31;;;17.46;100.00
26043;BME280;13818;52.156;5.382;2023-05-27T06:31:51;102628.41;;;17.20;100.00
26043;BME280;13818;52.156;5.382;2023-05-27T06:34:18;102633.28;;;16.91;100.00
26043;BME280;13818;52.156;5.382;2023-05-27T06:36:44;102629.00;;;16.65;100.00
26043;BME280;13818;52.156;5.382;2023-05-27T06:39:14;102633.13;;;16.53;100.00
26043;BME280;13818;52.156;5.382;2023-05-27T06:41:41;102612.16;;;17.40;100.00
26043;BME280;13818;52.156;5.382;2023-05-27T06:44:08;102626.66;;;17.76;100.00
26043;BME280;13818;52.156;5.382;2023-05-27T06:46:34;102619.00;;;17.10;100.00
26043;BME280;13818;52.156;5.382;2023-05-27T06:49:02;102623.19;;;16.96;100.00
26043;BME280;13818;52.156;5.382;2023-05-27T06:51:29;102610.38;;;17.60;100.00
26043;BME280;13818;52.156;5.382;2023-05-27T06:53:56;102607.47;;;17.06;100.00
26043;BME280;13818;52.156;5.382;2023-05-27T06:56:22;102605.91;;;17.40;100.00
26043;BME280;13818;52.156;5.382;2023-05-27T06:58:49;102606.56;;;18.37;100.00
26043;BME280;13818;52.156;5.382;2023-05-27T07:01:16;102608.25;;;18.40;100.00
26043;BME280;13818;52.156;5.382;2023-05-27T07:03:43;102601.47;;;16.79;100.00
26043;BME280;13818;52.156;5.382;2023-05-27T07:06:11;102606.56;;;17.64;100.00
26043;BME280;13818;52.156;5.382;2023-05-27T07:08:38;102582.41;;;19.21;98.93
26043;BME280;13818;52.156;5.382;2023-05-27T07:11:04;102593.88;;;19.08;97.42
26043;BME280;13818;52.156;5.382;2023-05-27T07:13:31;102594.81;;;18.74;100.00
26043;BME280;13818;52.156;5.382;2023-05-27T07:15:58;102586.34;;;19.63;94.06
26043;BME280;13818;52.156;5.382;2023-05-27T07:18:24;102591.69;;;20.57;88.47
26043;BME280;13818;52.156;5.382;2023-05-27T07:20:51;102589.16;;;21.13;83.98
26043;BME280;13818;52.156;5.382;2023-05-27T07:23:19;102593.66;;;21.42;80.21
26043;BME280;13818;52.156;5.382;2023-05-27T07:25:45;102607.31;;;20.83;80.89
26043;BME280;13818;52.156;5.382;2023-05-27T07:28:12;102596.25;;;21.72;78.40
26043;BME280;13818;52.156;5.382;2023-05-27T07:30:38;102605.41;;;20.99;77.70
26043;BME280;13818;52.156;5.382;2023-05-27T07:33:05;102589.44;;;22.07;73.77
26043;BME280;13818;52.156;5.382;2023-05-27T07:35:31;102589.84;;;21.17;76.62
26043;BME280;13818;52.156;5.382;2023-05-27T07:37:58;102596.38;;;21.42;79.73
26043;BME280;13818;52.156;5.382;2023-05-27T07:40:27;102591.66;;;21.31;76.02
26043;BME280;13818;52.156;5.382;2023-05-27T07:42:54;102586.91;;;21.20;77.21
26043;BME280;13818;52.156;5.382;2023-05-27T07:45:21;102587.69;;;21.78;76.11
26043;BME280;13818;52.156;5.382;2023-05-27T07:47:47;102599.72;;;20.89;74.46
26043;BME280;13818;52.156;5.382;2023-05-27T07:50:14;102588.09;;;22.00;73.72
26043;BME280;13818;52.156;5.382;2023-05-27T07:52:41;102578.34;;;21.70;72.10
26043;BME280;13818;52.156;5.382;2023-05-27T07:55:09;102580.22;;;22.63;69.26
26043;BME280;13818;52.156;5.382;2023-05-27T07:57:37;102571.75;;;23.06;67.13
26043;BME280;13818;52.156;5.382;2023-05-27T08:00:05;102560.00;;;21.03;69.41
26043;BME280;13818;52.156;5.382;2023-05-27T08:02:34;102572.38;;;21.21;69.62
26043;BME280;13818;52.156;5.382;2023-05-27T08:07:29;102562.66;;;22.15;69.28
26043;BME280;13818;52.156;5.382;2023-05-27T08:09:55;102547.75;;;21.39;73.54
26043;BME280;13818;52.156;5.382;2023-05-27T08:12:22;102546.75;;;20.84;75.19
26043;BME280;13818;52.156;5.382;2023-05-27T08:14:50;102540.63;;;19.10;80.05
26043;BME280;13818;52.156;5.382;2023-05-27T08:17:16;102529.53;;;19.95;81.10
26043;BME280;13818;52.156;5.382;2023-05-27T08:19:43;102528.25;;;21.05;76.00
26043;BME280;13818;52.156;5.382;2023-05-27T08:22:09;102525.44;;;21.48;73.72
26043;BME280;13818;52.156;5.382;2023-05-27T08:24:36;102527.94;;;21.66;73.48
26043;BME280;13818;52.156;5.382;2023-05-27T08:27:03;102527.28;;;21.06;74.31
26043;BME280;13818;52.156;5.382;2023-05-27T08:29:31;102522.06;;;21.03;73.88
26043;BME280;13818;52.156;5.382;2023-05-27T08:31:59;102532.56;;;20.49;73.88
26043;BME280;13818;52.156;5.382;2023-05-27T08:34:26;102529.88;;;19.73;80.70
26043;BME280;13818;52.156;5.382;2023-05-27T08:36:52;102520.97;;;20.62;78.58
26043;BME280;13818;52.156;5.382;2023-05-27T08:39:19;102528.53;;;20.57;81.07
26043;BME280;13818;52.156;5.382;2023-05-27T08:41:45;102516.22;;;19.44;82.34
26043;BME280;13818;52.156;5.382;2023-05-27T08:44:12;102516.69;;;20.29;80.59
26043;BME280;13818;52.156;5.382;2023-05-27T08:46:39;102514.81;;;19.68;85.83
26043;BME280;13818;52.156;5.382;2023-05-27T08:49:08;102519.19;;;20.32;83.70
26043;BME280;13818;52.156;5.382;2023-05-27T08:51:37;102507.84;;;19.32;83.39
26043;BME280;13818;52.156;5.382;2023-05-27T08:54:05;102499.31;;;20.62;84.43
26043;BME280;13818;52.156;5.382;2023-05-27T08:56:34;102509.19;;;19.72;86.87
26043;BME280;13818;52.156;5.382;2023-05-27T08:59:01;102493.97;;;19.71;82.62
26043;BME280;13818;52.156;5.382;2023-05-27T09:01:28;102498.97;;;19.77;82.90
26043;BME280;13818;52.156;5.382;2023-05-27T09:03:56;102489.22;;;19.90;83.28
26043;BME280;13818;52.156;5.382;2023-05-27T09:06:24;102477.44;;;20.06;83.30
26043;BME280;13818;52.156;5.382;2023-05-27T09:08:50;102481.09;;;19.90;83.28
26043;BME280;13818;52.156;5.382;2023-05-27T09:11:21;102481.78;;;19.15;84.25
26043;BME280;13818;52.156;5.382;2023-05-27T09:13:49;102473.06;;;17.55;91.88
26043;BME280;13818;52.156;5.382;2023-05-27T09:16:19;102478.84;;;18.19;93.57
26043;BME280;13818;52.156;5.382;2023-05-27T09:18:46;102465.28;;;19.52;92.90
26043;BME280;13818;52.156;5.382;2023-05-27T09:21:12;102468.44;;;18.63;93.31
26043;BME280;13818;52.156;5.382;2023-05-27T09:23:40;102473.41;;;18.54;92.79
26043;BME280;13818;52.156;5.382;2023-05-27T09:26:08;102460.06;;;19.33;93.39
26043;BME280;13818;52.156;5.382;2023-05-27T09:28:36;102468.81;;;19.68;87.59
26043;BME280;13818;52.156;5.382;2023-05-27T09:31:04;102464.44;;;19.19;88.75
26043;BME280;13818;52.156;5.382;2023-05-27T09:33:33;102477.28;;;18.49;88.69
26043;BME280;13818;52.156;5.382;2023-05-27T09:36:00;102451.16;;;19.47;90.76
26043;BME280;13818;52.156;5.382;2023-05-27T09:38:28;102456.16;;;19.85;89.25
26043;BME280;13818;52.156;5.382;2023-05-27T09:40:56;102458.81;;;20.01;87.66
26043;BME280;13818;52.156;5.382;2023-05-27T09:43:23;102467.22;;;19.34;87.94
26043;BME280;13818;52.156;5.382;2023-05-27T09:45:51;102451.97;;;19.33;91.13
26043;BME280;13818;52.156;5.382;2023-05-27T09:48:18;102455.53;;;19.17;88.21
26043;BME280;13818;52.156;5.382;2023-05-27T09:50:47;102445.78;;;18.99;90.42
26043;BME280;13818;52.156;5.382;2023-05-27T09:53:16;102437.59;;;19.16;89.54
26043;BME280;13818;52.156;5.382;2023-05-27T09:55:42;102430.63;;;19.59;85.68
26043;BME280;13818;52.156;5.382;2023-05-27T09:58:11;102446.44;;;19.81;85.14
26043;BME280;13818;52.156;5.382;2023-05-27T10:00:39;102445.47;;;19.51;86.36
26043;BME280;13818;52.156;5.382;2023-05-27T10:03:07;102424.34;;;19.58;86.15
26043;BME280;13818;52.156;5.382;2023-05-27T10:05:35;102424.97;;;19.47;86.71
26043;BME280;13818;52.156;5.382;2023-05-27T10:08:03;102429.16;;;18.73;84.31
26043;BME280;13818;52.156;5.382;2023-05-27T10:10:30;102417.03;;;18.48;88.35
26043;BME280;13818;52.156;5.382;2023-05-27T10:12:57;102421.75;;;18.77;86.09
26043;BME280;13818;52.156;5.382;2023-05-27T10:15:28;102411.31;;;18.86;85.89
26043;BME280;13818;52.156;5.382;2023-05-27T10:17:58;102414.56;;;18.77;88.49
26043;BME280;13818;52.156;5.382;2023-05-27T10:20:30;102411.16;;;19.06;87.92
26043;BME280;13818;52.156;5.382;2023-05-27T10:22:57;102407.34;;;18.94;85.18
26043;BME280;13818;52.156;5.382;2023-05-27T10:25:38;102409.44;;;19.05;79.76
26043;BME280;13818;52.156;5.382;2023-05-27T10:28:05;102396.91;;;18.86;83.41
26043;BME280;13818;52.156;5.382;2023-05-27T10:30:44;102396.50;;;19.10;85.35
26043;BME280;13818;52.156;5.382;2023-05-27T10:33:11;102392.69;;;18.98;82.12
26043;BME280;13818;52.156;5.382;2023-05-27T10:35:40;102389.09;;;19.13;77.90
26043;BME280;13818;52.156;5.382;2023-05-27T10:38:15;102380.28;;;19.10;78.62
26043;BME280;13818;52.156;5.382;2023-05-27T10:40:43;102386.50;;;19.28;80.12
26043;BME280;13818;52.156;5.382;2023-05-27T10:43:15;102386.06;;;18.88;77.58
26043;BME280;13818;52.156;5.382;2023-05-27T10:45:43;102392.44;;;19.02;78.15
26043;BME280;13818;52.156;5.382;2023-05-27T10:48:20;102379.00;;;19.17;74.04
26043;BME280;13818;52.156;5.382;2023-05-27T10:50:56;102379.44;;;19.09;74.24
26043;BME280;13818;52.156;5.382;2023-05-27T10:53:25;102377.84;;;19.21;75.72
26043;BME280;13818;52.156;5.382;2023-05-27T10:55:52;102372.91;;;19.44;75.97
26043;BME280;13818;52.156;5.382;2023-05-27T10:58:20;102363.59;;;19.33;77.80
26043;BME280;13818;52.156;5.382;2023-05-27T11:00:50;102365.09;;;19.39;77.63
26043;BME280;13818;52.156;5.382;2023-05-27T11:03:19;102362.41;;;19.23;78.10
26043;BME280;13818;52.156;5.382;2023-05-27T11:05:47;102358.66;;;19.56;80.80
26043;BME280;13818;52.156;5.382;2023-05-27T11:08:14;102354.63;;;19.63;78.05
26043;BME280;13818;52.156;5.382;2023-05-27T11:10:41;102350.84;;;19.66;77.36
26043;BME280;13818;52.156;5.382;2023-05-27T11:13:08;102345.13;;;19.56;75.74
26043;BME280;13818;52.156;5.382;2023-05-27T11:15:41;102348.91;;;19.54;74.50
26043;BME280;13818;52.156;5.382;2023-05-27T11:18:09;102338.88;;;19.70;74.78
26043;BME280;13818;52.156;5.382;2023-05-27T11:20:36;102315.84;;;20.08;78.41
26043;BME280;13818;52.156;5.382;2023-05-27T11:23:04;102317.56;;;19.80;72.31
26043;BME280;13818;52.156;5.382;2023-05-27T11:25:41;102323.34;;;19.74;72.69
26043;BME280;13818;52.156;5.382;2023-05-27T11:28:15;102316.75;;;19.63;73.82
26043;BME280;13818;52.156;5.382;2023-05-27T11:30:42;102313.94;;;19.65;74.91
26043;BME280;13818;52.156;5.382;2023-05-27T11:33:12;102322.28;;;19.62;74.20
26043;BME280;13818;52.156;5.382;2023-05-27T11:35:39;102321.03;;;19.37;74.84
26043;BME280;13818;52.156;5.382;2023-05-27T11:38:16;102303.78;;;19.85;76.21
26043;BME280;13818;52.156;5.382;2023-05-27T11:40:42;102291.88;;;19.87;72.64
26043;BME280;13818;52.156;5.382;2023-05-27T11:43:09;102292.94;;;19.99;74.51
26043;BME280;13818;52.156;5.382;2023-05-27T11:45:36;102297.28;;;20.02;74.55
26043;BME280;13818;52.156;5.382;2023-05-27T11:48:03;102283.66;;;19.89;73.13
26043;BME280;13818;52.156;5.382;2023-05-27T11:50:33;102280.84;;;20.19;74.60
26043;BME280;13818;52.156;5.382;2023-05-27T11:53:02;102278.88;;;20.36;73.48
26043;BME280;13818;52.156;5.382;2023-05-27T11:55:30;102277.00;;;19.94;71.71
26043;BME280;13818;52.156;5.382;2023-05-27T11:57:57;102277.56;;;20.14;70.86
26043;BME280;13818;52.156;5.382;2023-05-27T12:00:24;102271.66;;;20.36;70.46
26043;BME280;13818;52.156;5.382;2023-05-27T12:02:52;102272.50;;;20.37;70.49
26043;BME280;13818;52.156;5.382;2023-05-27T12:05:20;102265.19;;;19.95;72.21
26043;BME280;13818;52.156;5.382;2023-05-27T12:07:48;102256.22;;;19.95;72.36
26043;BME280;13818;52.156;5.382;2023-05-27T12:10:15;102256.47;;;20.19;74.99
26043;BME280;13818;52.156;5.382;2023-05-27T12:12:41;102252.97;;;20.31;73.09
26043;BME280;13818;52.156;5.382;2023-05-27T12:15:10;102255.50;;;20.20;70.82
26043;BME280;13818;52.156;5.382;2023-05-27T12:17:37;102247.34;;;20.35;70.87
26043;BME280;13818;52.156;5.382;2023-05-27T12:20:04;102239.38;;;20.46;71.20
26043;BME280;13818;52.156;5.382;2023-05-27T12:22:31;102237.31;;;20.64;69.77
26043;BME280;13818;52.156;5.382;2023-05-27T12:24:59;102236.72;;;20.73;69.15
26043;BME280;13818;52.156;5.382;2023-05-27T12:27:26;102238.78;;;20.55;68.82
26043;BME280;13818;52.156;5.382;2023-05-27T12:29:53;102227.88;;;20.70;71.97
26043;BME280;13818;52.156;5.382;2023-05-27T12:32:19;102223.84;;;20.77;73.08
26043;BME280;13818;52.156;5.382;2023-05-27T12:34:46;102227.88;;;20.70;74.11
26043;BME280;13818;52.156;5.382;2023-05-27T12:37:13;102224.63;;;20.64;74.48
26043;BME280;13818;52.156;5.382;2023-05-27T12:39:40;102210.41;;;20.75;75.13
26043;BME280;13818;52.156;5.382;2023-05-27T12:42:10;102231.53;;;20.56;71.56
26043;BME280;13818;52.156;5.382;2023-05-27T12:44:36;102225.91;;;20.59;73.54
26043;BME280;13818;52.156;5.382;2023-05-27T12:47:03;102217.28;;;20.39;73.96
26043;BME280;13818;52.156;5.382;2023-05-27T12:49:30;102197.59;;;20.77;73.34
26043;BME280;13818;52.156;5.382;2023-05-27T12:51:56;102208.56;;;20.89;71.37